createdAt,value
2018-05-23T00:00:35.940Z,0.00
2018-05-23T00:01:35.923Z,0.00
2018-05-23T00:02:35.967Z,0.00
2018-05-23T00:03:35.903Z,0.00
2018-05-23T00:04:35.875Z,0.00
2018-05-23T00:05:35.863Z,0.00
2018-05-23T00:06:35.847Z,0.00
2018-05-23T00:07:35.826Z,0.00
2018-05-23T00:08:35.866Z,0.00
2018-05-23T00:09:35.795Z,0.00
2018-05-23T00:10:35.778Z,0.00
2018-05-23T00:11:35.757Z,0.00
2018-05-23T00:12:35.746Z,0.00
2018-05-23T00:13:35.729Z,0.00
2018-05-23T00:14:35.726Z,0.00
2018-05-23T00:15:35.696Z,0.00
2018-05-23T00:16:35.679Z,0.00
2018-05-23T00:17:35.665Z,0.00
2018-05-23T00:18:35.653Z,0.00
2018-05-23T00:19:35.641Z,0.00
2018-05-23T00:20:35.614Z,0.00
2018-05-23T00:21:35.600Z,0.00
2018-05-23T00:22:35.585Z,0.00
2018-05-23T00:23:35.568Z,0.00
2018-05-23T00:24:35.563Z,0.00
2018-05-23T00:25:35.540Z,0.00
2018-05-23T00:26:35.519Z,0.00
2018-05-23T00:27:35.507Z,0.00
2018-05-23T00:28:35.487Z,0.00
2018-05-23T00:29:35.486Z,0.00
2018-05-23T00:30:35.465Z,0.00
2018-05-23T00:31:35.438Z,0.00
2018-05-23T00:32:35.422Z,0.00
2018-05-23T00:33:35.404Z,0.00
2018-05-23T00:34:35.391Z,0.00
2018-05-23T00:35:35.383Z,0.00
2018-05-23T00:36:35.358Z,0.00
2018-05-23T00:37:35.340Z,0.00
2018-05-23T00:38:35.327Z,0.00
2018-05-23T00:39:35.311Z,0.00
2018-05-23T00:40:35.307Z,0.00
2018-05-23T00:41:35.275Z,0.00
2018-05-23T00:42:35.258Z,0.00
2018-05-23T00:43:35.242Z,0.00
2018-05-23T00:44:35.227Z,0.00
2018-05-23T00:45:35.223Z,0.00
2018-05-23T00:46:35.195Z,0.00
2018-05-23T00:47:35.182Z,0.00
2018-05-23T00:48:35.166Z,0.00
2018-05-23T00:49:35.147Z,0.00
2018-05-23T00:50:35.142Z,0.00
2018-05-23T00:51:35.119Z,0.00
2018-05-23T00:52:35.098Z,0.00
2018-05-23T00:53:35.088Z,0.00
2018-05-23T00:54:35.068Z,0.00
2018-05-23T00:55:35.072Z,0.00
2018-05-23T00:56:35.033Z,0.00
2018-05-23T00:57:35.023Z,0.00
2018-05-23T00:58:35.000Z,0.00
2018-05-23T00:59:34.982Z,0.00
2018-05-23T01:00:34.969Z,0.00
2018-05-23T01:01:34.967Z,0.00
2018-05-23T01:02:34.941Z,0.00
2018-05-23T01:03:34.916Z,0.00
2018-05-23T01:04:34.903Z,0.00
2018-05-23T01:05:34.886Z,0.00
2018-05-23T01:06:34.883Z,0.00
2018-05-23T01:07:34.854Z,0.00
2018-05-23T01:08:34.847Z,0.00
2018-05-23T01:09:34.822Z,0.00
2018-05-23T01:10:34.808Z,0.00
2018-05-23T01:11:34.798Z,0.00
2018-05-23T01:12:34.771Z,0.00
2018-05-23T01:13:34.755Z,0.00
2018-05-23T01:14:34.739Z,0.00
2018-05-23T01:15:34.721Z,0.00
2018-05-23T01:16:34.721Z,0.00
2018-05-23T01:17:34.691Z,0.00
2018-05-23T01:18:34.670Z,0.00
2018-05-23T01:19:34.657Z,0.00
2018-05-23T01:20:34.640Z,0.00
2018-05-23T01:21:34.630Z,0.00
2018-05-23T01:22:34.620Z,0.00
2018-05-23T01:23:34.595Z,0.00
2018-05-23T01:24:34.578Z,0.00
2018-05-23T01:25:34.560Z,0.00
2018-05-23T01:26:34.542Z,0.00
2018-05-23T01:27:34.536Z,0.00
2018-05-23T01:28:34.509Z,0.00
2018-05-23T01:29:34.490Z,0.00
2018-05-23T01:30:34.477Z,0.00
2018-05-23T01:31:34.464Z,0.00
2018-05-23T01:32:34.464Z,0.00
2018-05-23T01:33:34.426Z,0.00
2018-05-23T01:34:34.411Z,0.00
2018-05-23T01:35:34.395Z,0.00
2018-05-23T01:36:34.376Z,0.00
2018-05-23T01:37:34.364Z,0.00
2018-05-23T01:38:34.358Z,0.00
2018-05-23T01:39:34.327Z,0.00
2018-05-23T01:40:34.318Z,0.00
2018-05-23T01:41:34.300Z,0.00
2018-05-23T01:42:34.284Z,0.00
2018-05-23T01:43:34.277Z,0.00
2018-05-23T01:44:34.245Z,0.00
2018-05-23T01:45:34.232Z,0.00
2018-05-23T01:46:34.214Z,0.00
2018-05-23T01:47:34.194Z,0.00
2018-05-23T01:48:34.193Z,0.00
2018-05-23T01:49:34.165Z,0.00
2018-05-23T01:50:34.149Z,0.00
2018-05-23T01:51:34.131Z,0.00
2018-05-23T01:52:34.116Z,0.00
2018-05-23T01:53:34.119Z,0.00
2018-05-23T01:54:34.083Z,0.00
2018-05-23T01:55:34.068Z,0.00
2018-05-23T01:56:34.049Z,0.00
2018-05-23T01:57:34.043Z,0.00
2018-05-23T01:58:34.013Z,0.00
2018-05-23T01:59:34.010Z,0.00
2018-05-23T02:00:33.986Z,0.00
2018-05-23T02:01:33.964Z,0.00
2018-05-23T02:02:33.950Z,0.00
2018-05-23T02:03:33.931Z,0.00
2018-05-23T02:04:33.935Z,0.00
2018-05-23T02:05:33.907Z,0.00
2018-05-23T02:06:33.882Z,0.00
2018-05-23T02:07:33.867Z,0.00
2018-05-23T02:08:33.848Z,0.00
2018-05-23T02:09:33.844Z,0.00
2018-05-23T02:10:33.818Z,0.00
2018-05-23T02:11:33.800Z,0.00
2018-05-23T02:12:33.786Z,0.00
2018-05-23T02:13:33.766Z,0.00
2018-05-23T02:14:33.764Z,0.00
2018-05-23T02:15:33.733Z,0.00
2018-05-23T02:16:33.713Z,0.00
2018-05-23T02:17:33.700Z,0.00
2018-05-23T02:18:33.750Z,0.00
2018-05-23T02:19:33.677Z,0.00
2018-05-23T02:20:33.650Z,0.00
2018-05-23T02:21:33.634Z,0.00
2018-05-23T02:22:33.620Z,0.00
2018-05-23T02:23:33.599Z,0.00
2018-05-23T02:24:33.602Z,0.00
2018-05-23T02:25:33.570Z,0.00
2018-05-23T02:26:33.549Z,0.00
2018-05-23T02:27:33.531Z,0.00
2018-05-23T02:28:33.519Z,0.00
2018-05-23T02:29:33.514Z,0.00
2018-05-23T02:30:33.498Z,0.00
2018-05-23T02:31:33.471Z,0.00
2018-05-23T02:32:33.451Z,0.00
2018-05-23T02:33:33.432Z,0.00
2018-05-23T02:34:33.515Z,0.00
2018-05-23T02:35:33.421Z,0.00
2018-05-23T02:36:33.391Z,0.00
2018-05-23T02:37:33.366Z,0.00
2018-05-23T02:38:33.349Z,0.00
2018-05-23T02:39:33.333Z,0.00
2018-05-23T02:40:33.336Z,0.00
2018-05-23T02:41:33.302Z,0.00
2018-05-23T02:42:33.283Z,0.00
2018-05-23T02:43:33.269Z,0.00
2018-05-23T02:44:33.255Z,0.00
2018-05-23T02:45:33.228Z,0.00
2018-05-23T02:46:33.225Z,0.00
2018-05-23T02:47:33.199Z,0.00
2018-05-23T02:48:33.186Z,0.00
2018-05-23T02:49:33.167Z,0.00
2018-05-23T02:50:33.151Z,0.00
2018-05-23T02:51:33.144Z,0.00
2018-05-23T02:52:33.118Z,0.00
2018-05-23T02:53:33.103Z,0.00
2018-05-23T02:54:33.079Z,0.00
2018-05-23T02:55:33.063Z,0.00
2018-05-23T02:56:33.056Z,4.00
2018-05-23T02:57:33.031Z,4.00
2018-05-23T02:58:33.016Z,4.00
2018-05-23T02:59:32.997Z,4.00
2018-05-23T03:00:32.983Z,0.00
2018-05-23T03:01:32.981Z,4.00
2018-05-23T03:02:32.948Z,4.00
2018-05-23T03:03:32.928Z,4.00
2018-05-23T03:04:32.915Z,4.00
2018-05-23T03:05:32.901Z,4.00
2018-05-23T03:06:32.876Z,8.00
2018-05-23T03:07:32.874Z,8.00
2018-05-23T03:08:32.845Z,8.00
2018-05-23T03:09:32.830Z,8.00
2018-05-23T03:10:32.811Z,12.00
2018-05-23T03:11:32.796Z,12.00
2018-05-23T03:12:32.787Z,16.00
2018-05-23T03:13:32.764Z,16.00
2018-05-23T03:14:32.746Z,16.00
2018-05-23T03:15:32.725Z,16.00
2018-05-23T03:16:32.713Z,20.00
2018-05-23T03:17:32.705Z,20.00
2018-05-23T03:18:32.676Z,24.00
2018-05-23T03:19:32.659Z,28.00
2018-05-23T03:20:32.644Z,28.00
2018-05-23T03:21:32.631Z,32.00
2018-05-23T03:22:32.630Z,36.00
2018-05-23T03:23:32.591Z,40.00
2018-05-23T03:24:32.576Z,40.00
2018-05-23T03:25:32.559Z,40.00
2018-05-23T03:26:32.543Z,48.00
2018-05-23T03:27:32.526Z,48.00
2018-05-23T03:28:32.519Z,56.00
2018-05-23T03:29:32.492Z,56.00
2018-05-23T03:30:32.483Z,60.00
2018-05-23T03:31:32.463Z,64.00
2018-05-23T03:32:32.448Z,68.00
2018-05-23T03:33:32.434Z,72.00
2018-05-23T03:34:32.410Z,76.00
2018-05-23T03:35:32.395Z,84.00
2018-05-23T03:36:32.375Z,88.00
2018-05-23T03:37:32.359Z,96.00
2018-05-23T03:38:32.352Z,104.00
2018-05-23T03:39:32.326Z,112.00
2018-05-23T03:40:32.307Z,120.00
2018-05-23T03:41:32.289Z,132.00
2018-05-23T03:44:05.337Z,152.00
2018-05-23T03:45:05.311Z,160.00
2018-05-23T03:46:05.293Z,168.00
2018-05-23T03:47:05.275Z,172.00
2018-05-23T03:48:05.259Z,180.00
2018-05-23T03:49:05.253Z,188.00
2018-05-23T03:50:05.229Z,192.00
2018-05-23T03:51:05.215Z,200.00
2018-05-23T03:52:05.193Z,212.00
2018-05-23T03:53:05.176Z,220.00
2018-05-23T03:54:05.169Z,232.00
2018-05-23T03:55:05.141Z,252.00
2018-05-23T03:56:05.126Z,272.00
2018-05-23T03:57:05.109Z,292.00
2018-05-23T03:58:05.092Z,312.00
2018-05-23T03:59:05.090Z,336.00
2018-05-23T04:00:05.064Z,364.00
2018-05-23T04:01:05.046Z,388.00
2018-05-23T04:02:05.027Z,412.00
2018-05-23T04:03:05.009Z,436.00
2018-05-23T04:04:04.993Z,456.00
2018-05-23T04:05:04.985Z,472.00
2018-05-23T04:06:04.999Z,488.00
2018-05-23T04:07:04.943Z,504.00
2018-05-23T04:08:04.925Z,528.00
2018-05-23T04:09:04.910Z,552.00
2018-05-23T04:10:04.902Z,572.00
2018-05-23T04:11:04.876Z,584.00
2018-05-23T04:12:04.865Z,592.00
2018-05-23T04:13:04.843Z,608.00
2018-05-23T04:14:04.826Z,632.00
2018-05-23T04:15:04.826Z,656.00
2018-05-23T04:16:04.793Z,676.00
2018-05-23T04:17:04.777Z,684.00
2018-05-23T04:18:04.760Z,712.00
2018-05-23T04:19:04.755Z,756.00
2018-05-23T04:20:04.726Z,792.00
2018-05-23T04:21:04.725Z,804.00
2018-05-23T04:22:04.693Z,828.00
2018-05-23T04:23:04.677Z,844.00
2018-05-23T04:24:04.724Z,872.00
2018-05-23T04:25:04.657Z,888.00
2018-05-23T04:26:04.643Z,888.00
2018-05-23T04:27:04.610Z,864.00
2018-05-23T04:28:04.593Z,836.00
2018-05-23T04:29:04.578Z,824.00
2018-05-23T04:30:04.560Z,820.00
2018-05-23T04:31:04.547Z,820.00
2018-05-23T04:32:04.538Z,828.00
2018-05-23T04:33:04.512Z,828.00
2018-05-23T04:34:04.496Z,824.00
2018-05-23T04:35:04.480Z,824.00
2018-05-23T04:36:04.462Z,828.00
2018-05-23T04:37:04.455Z,832.00
2018-05-23T04:38:04.430Z,848.00
2018-05-23T04:39:04.415Z,860.00
2018-05-23T04:40:04.396Z,884.00
2018-05-23T04:41:04.380Z,904.00
2018-05-23T04:42:04.377Z,936.00
2018-05-23T04:43:04.349Z,980.00
2018-05-23T04:44:04.330Z,1028.00
2018-05-23T04:45:04.315Z,1064.00
2018-05-23T04:46:04.297Z,1100.00
2018-05-23T04:47:04.293Z,1136.00
2018-05-23T04:48:04.267Z,1164.00
2018-05-23T04:49:04.249Z,1200.00
2018-05-23T04:50:04.235Z,1236.00
2018-05-23T04:51:04.216Z,1268.00
2018-05-23T04:52:04.219Z,1300.00
2018-05-23T04:53:04.183Z,1332.00
2018-05-23T04:54:04.168Z,1360.00
2018-05-23T04:55:04.154Z,1396.00
2018-05-23T04:56:04.134Z,1432.00
2018-05-23T04:57:04.119Z,1468.00
2018-05-23T04:58:04.118Z,1512.00
2018-05-23T04:59:04.086Z,1568.00
2018-05-23T05:00:04.069Z,1624.00
2018-05-23T05:01:04.055Z,1684.00
2018-05-23T05:02:04.039Z,1752.00
2018-05-23T05:03:04.032Z,1812.00
2018-05-23T05:04:04.005Z,1876.00
2018-05-23T05:05:03.986Z,1944.00
2018-05-23T05:06:03.971Z,2012.00
2018-05-23T05:07:03.954Z,2076.00
2018-05-23T05:08:03.949Z,2140.00
2018-05-23T05:09:03.924Z,2196.00
2018-05-23T05:10:03.953Z,2248.00
2018-05-23T05:11:03.888Z,2288.00
2018-05-23T05:12:03.878Z,2312.00
2018-05-23T05:13:03.871Z,2332.00
2018-05-23T05:14:03.840Z,2344.00
2018-05-23T05:15:03.823Z,2352.00
2018-05-23T05:16:03.812Z,2368.00
2018-05-23T05:17:03.791Z,2392.00
2018-05-23T05:18:03.775Z,2416.00
2018-05-23T05:19:03.768Z,2444.00
2018-05-23T05:20:03.742Z,2476.00
2018-05-23T05:21:03.727Z,2512.00
2018-05-23T05:22:03.710Z,2548.00
2018-05-23T05:23:03.697Z,2580.00
2018-05-23T05:24:03.688Z,2612.00
2018-05-23T05:25:03.723Z,2644.00
2018-05-23T05:26:03.645Z,2680.00
2018-05-23T05:27:03.629Z,2716.00
2018-05-23T05:28:03.614Z,2764.00
2018-05-23T05:29:03.608Z,2824.00
2018-05-23T05:30:03.581Z,2900.00
2018-05-23T05:31:03.570Z,2992.00
2018-05-23T05:32:03.552Z,3100.00
2018-05-23T05:33:03.530Z,3220.00
2018-05-23T05:34:03.531Z,3344.00
2018-05-23T05:35:03.500Z,3472.00
2018-05-23T05:36:03.482Z,3592.00
2018-05-23T05:37:03.467Z,3708.00
2018-05-23T05:38:03.452Z,3824.00
2018-05-23T05:39:03.438Z,3924.00
2018-05-23T05:40:03.430Z,4028.00
2018-05-23T05:41:03.402Z,4132.00
2018-05-23T05:42:03.387Z,4220.00
2018-05-23T05:43:03.373Z,4312.00
2018-05-23T05:44:03.357Z,4392.00
2018-05-23T05:45:03.349Z,4464.00
2018-05-23T05:46:03.323Z,4544.00
2018-05-23T05:47:03.346Z,4628.00
2018-05-23T05:48:03.291Z,4728.00
2018-05-23T05:49:03.276Z,4836.00
2018-05-23T05:50:03.270Z,4952.00
2018-05-23T05:51:03.248Z,5084.00
2018-05-23T05:52:03.227Z,5240.00
2018-05-23T05:53:03.213Z,5404.00
2018-05-23T05:54:03.199Z,5580.00
2018-05-23T05:55:03.200Z,5752.00
2018-05-23T05:56:03.164Z,5932.00
2018-05-23T05:57:03.148Z,6100.00
2018-05-23T05:58:03.133Z,6252.00
2018-05-23T05:59:03.117Z,6384.00
2018-05-23T06:00:03.099Z,6500.00
2018-05-23T06:01:03.095Z,6600.00
2018-05-23T06:02:03.127Z,6668.00
2018-05-23T06:03:03.054Z,6712.00
2018-05-23T06:04:03.040Z,6728.00
2018-05-23T06:05:03.022Z,6756.00
2018-05-23T06:06:03.018Z,6820.00
2018-05-23T06:07:02.992Z,6908.00
2018-05-23T06:08:02.976Z,7020.00
2018-05-23T06:09:02.958Z,7176.00
2018-05-23T06:10:02.945Z,7340.00
2018-05-23T06:11:02.941Z,7440.00
2018-05-23T06:12:02.913Z,7480.00
2018-05-23T06:13:02.896Z,7420.00
2018-05-23T06:14:02.882Z,7340.00
2018-05-23T06:15:02.879Z,7288.00
2018-05-23T06:16:02.921Z,7248.00
2018-05-23T06:17:02.836Z,7204.00
2018-05-23T06:18:02.824Z,7172.00
2018-05-23T06:19:02.805Z,7152.00
2018-05-23T06:20:02.791Z,7192.00
2018-05-23T06:21:02.790Z,7264.00
2018-05-23T06:22:02.760Z,7300.00
2018-05-23T06:23:02.748Z,7296.00
2018-05-23T06:24:02.730Z,7284.00
2018-05-23T06:25:02.715Z,7300.00
2018-05-23T06:26:02.699Z,7356.00
2018-05-23T06:27:02.698Z,7432.00
2018-05-23T06:28:02.671Z,7528.00
2018-05-23T06:29:02.655Z,7632.00
2018-05-23T06:30:02.641Z,7728.00
2018-05-23T06:31:02.625Z,7832.00
2018-05-23T06:32:02.618Z,7908.00
2018-05-23T06:33:02.596Z,7956.00
2018-05-23T06:34:02.581Z,7980.00
2018-05-23T06:35:02.567Z,8008.00
2018-05-23T06:36:02.554Z,8052.00
2018-05-23T06:37:02.543Z,8128.00
2018-05-23T06:38:02.518Z,8288.00
2018-05-23T06:39:02.507Z,8492.00
2018-05-23T06:40:02.490Z,8596.00
2018-05-23T06:41:02.473Z,8740.00
2018-05-23T06:42:02.483Z,8952.00
2018-05-23T06:43:02.447Z,9200.00
2018-05-23T06:44:02.432Z,9308.00
2018-05-23T06:45:02.417Z,9300.00
2018-05-23T06:46:02.403Z,9444.00
2018-05-23T06:47:02.391Z,9628.00
2018-05-23T06:48:02.387Z,9844.00
2018-05-23T06:49:02.357Z,10188.00
2018-05-23T06:50:02.383Z,10468.00
2018-05-23T06:51:02.331Z,10728.00
2018-05-23T06:52:02.313Z,10776.00
2018-05-23T06:53:02.309Z,10792.00
2018-05-23T06:54:02.286Z,10792.00
2018-05-23T06:55:02.291Z,10472.00
2018-05-23T06:56:02.256Z,10320.00
2018-05-23T06:57:02.247Z,10260.00
2018-05-23T06:58:02.254Z,10132.00
2018-05-23T06:59:02.214Z,10008.00
2018-05-23T07:00:02.203Z,9928.00
2018-05-23T07:01:02.189Z,9908.00
2018-05-23T07:02:02.174Z,9940.00
2018-05-23T07:03:02.180Z,9996.00
2018-05-23T07:04:02.145Z,10084.00
2018-05-23T07:05:02.137Z,10176.00
2018-05-23T07:06:02.117Z,10300.00
2018-05-23T07:07:02.102Z,10444.00
2018-05-23T07:08:02.115Z,10600.00
2018-05-23T07:09:02.079Z,10748.00
2018-05-23T07:10:02.060Z,10916.00
2018-05-23T07:11:02.105Z,11112.00
2018-05-23T07:12:02.036Z,11312.00
2018-05-23T07:13:02.021Z,11484.00
2018-05-23T07:14:02.014Z,11672.00
2018-05-23T07:15:01.995Z,11872.00
2018-05-23T07:16:01.975Z,12004.00
2018-05-23T07:17:01.965Z,12124.00
2018-05-23T07:18:02.120Z,12168.00
2018-05-23T07:19:01.955Z,12176.00
2018-05-23T07:20:01.925Z,12204.00
2018-05-23T07:21:01.907Z,12160.00
2018-05-23T07:22:01.892Z,12032.00
2018-05-23T07:23:01.881Z,11940.00
2018-05-23T07:24:01.940Z,11848.00
2018-05-23T07:25:01.854Z,11704.00
2018-05-23T07:26:01.841Z,11544.00
2018-05-23T07:27:01.827Z,11432.00
2018-05-23T07:28:01.810Z,11388.00
2018-05-23T07:29:01.820Z,11320.00
2018-05-23T07:30:01.786Z,11184.00
2018-05-23T07:31:01.772Z,11008.00
2018-05-23T07:32:01.760Z,10852.00
2018-05-23T07:33:01.751Z,10780.00
2018-05-23T07:34:01.729Z,10808.00
2018-05-23T07:35:01.760Z,10980.00
2018-05-23T07:36:01.703Z,11308.00
2018-05-23T07:37:01.692Z,11620.00
2018-05-23T07:38:01.675Z,11896.00
2018-05-23T07:39:01.664Z,12116.00
2018-05-23T07:40:01.660Z,12264.00
2018-05-23T07:41:01.635Z,12432.00
2018-05-23T07:42:01.622Z,12596.00
2018-05-23T07:43:01.609Z,12776.00
2018-05-23T07:44:01.597Z,12932.00
2018-05-23T07:45:01.612Z,13044.00
2018-05-23T07:46:01.581Z,13120.00
2018-05-23T07:47:01.560Z,13120.00
2018-05-23T07:48:01.545Z,12904.00
2018-05-23T07:49:01.531Z,12616.00
2018-05-23T07:50:01.531Z,12404.00
2018-05-23T07:51:01.500Z,12352.00
2018-05-23T07:52:01.496Z,12380.00
2018-05-23T07:53:01.481Z,12568.00
2018-05-23T07:54:01.473Z,12788.00
2018-05-23T07:55:01.449Z,12868.00
2018-05-23T07:56:01.444Z,12812.00
2018-05-23T07:57:01.423Z,12748.00
2018-05-23T07:58:01.406Z,12672.00
2018-05-23T07:59:01.394Z,12584.00
2018-05-23T08:00:01.380Z,12472.00
2018-05-23T08:01:01.377Z,12444.00
2018-05-23T08:02:01.353Z,12424.00
2018-05-23T08:03:01.339Z,12400.00
2018-05-23T08:04:01.326Z,12440.00
2018-05-23T08:05:01.314Z,12464.00
2018-05-23T08:06:01.311Z,12708.00
2018-05-23T08:07:01.288Z,13372.00
2018-05-23T08:08:01.273Z,13928.00
2018-05-23T08:09:01.259Z,14380.00
2018-05-23T08:10:01.248Z,14844.00
2018-05-23T08:11:01.245Z,15216.00
2018-05-23T08:12:01.218Z,15408.00
2018-05-23T08:13:01.207Z,15440.00
2018-05-23T08:14:01.195Z,15280.00
2018-05-23T08:15:01.184Z,14968.00
2018-05-23T08:16:01.188Z,14576.00
2018-05-23T08:17:01.152Z,14168.00
2018-05-23T08:18:01.141Z,13764.00
2018-05-23T08:19:01.129Z,13384.00
2018-05-23T08:20:01.115Z,13008.00
2018-05-23T08:21:01.104Z,12664.00
2018-05-23T08:22:01.096Z,12336.00
2018-05-23T08:23:01.074Z,12044.00
2018-05-23T08:24:01.062Z,11828.00
2018-05-23T08:25:01.052Z,11624.00
2018-05-23T08:26:01.037Z,11484.00
2018-05-23T08:27:01.040Z,11336.00
2018-05-23T08:28:01.013Z,11144.00
2018-05-23T08:29:01.000Z,10956.00
2018-05-23T08:30:00.989Z,10752.00
2018-05-23T08:31:00.975Z,10476.00
2018-05-23T08:32:00.980Z,10556.00
2018-05-23T08:33:00.952Z,10336.00
2018-05-23T08:34:00.936Z,10632.00
2018-05-23T08:35:00.926Z,10812.00
2018-05-23T08:36:00.912Z,10584.00
2018-05-23T08:37:00.918Z,10672.00
2018-05-23T08:38:00.886Z,10984.00
2018-05-23T08:39:00.876Z,11192.00
2018-05-23T08:40:00.866Z,11428.00
2018-05-23T08:41:00.851Z,11816.00
2018-05-23T08:42:00.838Z,12016.00
2018-05-23T08:43:00.843Z,12336.00
2018-05-23T08:44:00.811Z,12556.00
2018-05-23T08:45:00.798Z,13012.00
2018-05-23T08:46:00.886Z,13556.00
2018-05-23T08:47:00.790Z,14136.00
2018-05-23T08:48:00.780Z,14496.00
2018-05-23T08:49:00.751Z,14684.00
2018-05-23T08:50:00.739Z,14784.00
2018-05-23T08:51:00.726Z,14764.00
2018-05-23T08:52:00.713Z,14836.00
2018-05-23T08:53:00.711Z,14832.00
2018-05-23T08:54:00.708Z,15044.00
2018-05-23T08:55:00.710Z,15208.00
2018-05-23T08:56:00.659Z,15452.00
2018-05-23T08:57:00.653Z,15776.00
2018-05-23T08:58:00.671Z,16048.00
2018-05-23T08:59:00.676Z,16268.00
2018-05-23T09:00:00.624Z,16420.00
2018-05-23T09:01:00.601Z,16704.00
2018-05-23T09:02:00.603Z,16928.00
2018-05-23T09:03:00.592Z,16896.00
2018-05-23T09:04:00.582Z,16640.00
2018-05-23T09:05:00.567Z,16252.00
2018-05-23T09:06:00.545Z,15908.00
2018-05-23T09:07:00.541Z,15584.00
2018-05-23T09:08:00.534Z,15184.00
2018-05-23T09:09:00.510Z,14728.00
2018-05-23T09:10:00.494Z,14176.00
2018-05-23T09:11:00.487Z,13584.00
2018-05-23T09:12:00.485Z,12932.00
2018-05-23T09:13:00.459Z,12268.00
2018-05-23T09:14:00.472Z,11572.00
2018-05-23T09:15:00.438Z,11032.00
2018-05-23T09:16:00.422Z,10636.00
2018-05-23T09:17:00.416Z,10420.00
2018-05-23T09:18:00.401Z,10344.00
2018-05-23T09:19:00.398Z,10376.00
2018-05-23T09:20:00.381Z,10432.00
2018-05-23T09:21:00.367Z,10584.00
2018-05-23T09:22:00.356Z,10828.00
2018-05-23T09:23:00.342Z,11100.00
2018-05-23T09:24:00.347Z,11624.00
2018-05-23T09:25:00.317Z,11796.00
2018-05-23T09:26:00.306Z,11804.00
2018-05-23T09:27:00.295Z,11580.00
2018-05-23T09:28:00.282Z,11064.00
2018-05-23T09:29:00.271Z,10696.00
2018-05-23T09:30:00.269Z,10436.00
2018-05-23T09:31:00.247Z,10296.00
2018-05-23T09:32:00.234Z,10364.00
2018-05-23T09:33:00.224Z,10672.00
2018-05-23T09:34:00.210Z,11164.00
2018-05-23T09:35:00.214Z,11708.00
2018-05-23T09:36:00.190Z,12352.00
2018-05-23T09:37:00.176Z,13036.00
2018-05-23T09:38:00.163Z,13768.00
2018-05-23T09:39:00.151Z,14592.00
2018-05-23T09:40:00.152Z,15412.00
2018-05-23T09:41:00.127Z,16176.00
2018-05-23T09:42:00.112Z,16864.00
2018-05-23T09:43:00.104Z,17216.00
2018-05-23T09:44:00.091Z,17472.00
2018-05-23T09:45:00.097Z,17536.00
2018-05-23T09:46:00.067Z,17440.00
2018-05-23T09:47:00.054Z,17216.00
2018-05-23T09:48:00.044Z,16928.00
2018-05-23T09:49:00.034Z,16576.00
2018-05-23T09:50:00.019Z,16100.00
2018-05-23T09:51:00.019Z,15716.00
2018-05-23T09:51:59.996Z,15360.00
2018-05-23T09:52:59.985Z,15024.00
2018-05-23T09:53:59.975Z,14744.00
2018-05-23T09:55:00.045Z,14528.00
2018-05-23T09:55:59.958Z,14308.00
2018-05-23T09:56:59.940Z,14060.00
2018-05-23T09:57:59.924Z,13796.00
2018-05-23T09:58:59.915Z,13544.00
2018-05-23T09:59:59.916Z,13344.00
2018-05-23T10:00:59.906Z,13160.00
2018-05-23T10:01:59.880Z,12884.00
2018-05-23T10:02:59.864Z,12408.00
2018-05-23T10:03:59.856Z,11792.00
2018-05-23T10:04:59.854Z,11112.00
2018-05-23T10:05:59.860Z,10464.00
2018-05-23T10:06:59.820Z,9936.00
2018-05-23T10:07:59.807Z,9636.00
2018-05-23T10:08:59.793Z,9528.00
2018-05-23T10:09:59.783Z,9536.00
2018-05-23T10:10:59.770Z,9628.00
2018-05-23T10:11:59.774Z,9700.00
2018-05-23T10:12:59.748Z,9748.00
2018-05-23T10:13:59.735Z,9728.00
2018-05-23T10:14:59.730Z,9680.00
2018-05-23T10:15:59.709Z,9636.00
2018-05-23T10:16:59.718Z,9632.00
2018-05-23T10:17:59.685Z,9632.00
2018-05-23T10:18:59.671Z,9648.00
2018-05-23T10:19:59.662Z,9740.00
2018-05-23T10:20:59.650Z,9852.00
2018-05-23T10:21:59.646Z,9984.00
2018-05-23T10:22:59.623Z,10112.00
2018-05-23T10:23:59.610Z,10216.00
2018-05-23T10:24:59.599Z,10308.00
2018-05-23T10:25:59.589Z,10380.00
2018-05-23T10:26:59.581Z,10440.00
2018-05-23T10:27:59.560Z,10468.00
2018-05-23T10:28:59.546Z,10460.00
2018-05-23T10:29:59.543Z,10400.00
2018-05-23T10:30:59.524Z,10312.00
2018-05-23T10:31:59.527Z,10168.00
2018-05-23T10:32:59.497Z,9916.00
2018-05-23T10:33:59.486Z,9572.00
2018-05-23T10:34:59.475Z,9196.00
2018-05-23T10:35:59.464Z,8800.00
2018-05-23T10:36:59.446Z,8436.00
2018-05-23T10:37:59.444Z,8172.00
2018-05-23T10:38:59.475Z,8000.00
2018-05-23T10:39:59.408Z,7908.00
2018-05-23T10:40:59.394Z,7848.00
2018-05-23T10:41:59.380Z,7832.00
2018-05-23T10:42:59.384Z,7876.00
2018-05-23T10:43:59.361Z,7928.00
2018-05-23T10:44:59.344Z,7968.00
2018-05-23T10:45:59.330Z,7932.00
2018-05-23T10:46:59.319Z,7828.00
2018-05-23T10:47:59.315Z,7704.00
2018-05-23T10:48:59.291Z,7568.00
2018-05-23T10:49:59.276Z,7440.00
2018-05-23T10:50:59.263Z,7384.00
2018-05-23T10:51:59.327Z,7392.00
2018-05-23T10:52:59.258Z,7468.00
2018-05-23T10:53:59.225Z,7576.00
2018-05-23T10:54:59.211Z,7700.00
2018-05-23T10:55:59.201Z,7824.00
2018-05-23T10:56:59.185Z,7968.00
2018-05-23T10:57:59.172Z,8124.00
2018-05-23T10:58:59.170Z,8208.00
2018-05-23T10:59:59.145Z,8252.00
2018-05-23T11:00:59.133Z,8264.00
2018-05-23T11:01:59.121Z,8208.00
2018-05-23T11:02:59.138Z,8084.00
2018-05-23T11:03:59.103Z,7968.00
2018-05-23T11:04:59.078Z,7888.00
2018-05-23T11:05:59.114Z,7804.00
2018-05-23T11:06:59.052Z,7724.00
2018-05-23T11:07:59.038Z,7624.00
2018-05-23T11:08:59.090Z,7520.00
2018-05-23T11:09:59.011Z,7432.00
2018-05-23T11:10:58.998Z,7308.00
2018-05-23T11:11:58.983Z,7228.00
2018-05-23T11:12:58.976Z,7208.00
2018-05-23T11:13:58.970Z,7216.00
2018-05-23T11:14:59.025Z,7244.00
2018-05-23T11:15:58.928Z,7308.00
2018-05-23T11:16:58.917Z,7440.00
2018-05-23T11:17:58.904Z,7624.00
2018-05-23T11:18:58.903Z,7888.00
2018-05-23T11:19:58.876Z,8240.00
2018-05-23T11:20:58.864Z,8636.00
2018-05-23T11:21:58.848Z,9104.00
2018-05-23T11:22:58.835Z,9604.00
2018-05-23T11:23:58.822Z,10068.00
2018-05-23T11:24:58.816Z,10456.00
2018-05-23T11:25:58.796Z,10780.00
2018-05-23T11:26:58.781Z,11040.00
2018-05-23T11:27:58.773Z,11352.00
2018-05-23T11:28:58.764Z,11636.00
2018-05-23T11:29:58.761Z,11936.00
2018-05-23T11:30:58.727Z,12244.00
2018-05-23T11:31:58.711Z,12416.00
2018-05-23T11:32:58.705Z,12460.00
2018-05-23T11:33:58.695Z,12424.00
2018-05-23T11:34:58.715Z,12304.00
2018-05-23T11:35:58.657Z,12104.00
2018-05-23T11:36:58.680Z,11876.00
2018-05-23T11:37:58.648Z,11668.00
2018-05-23T11:38:58.643Z,11512.00
2018-05-23T11:39:58.625Z,11448.00
2018-05-23T11:40:58.620Z,11388.00
2018-05-23T11:41:58.602Z,11348.00
2018-05-23T11:42:58.593Z,11360.00
2018-05-23T11:43:58.565Z,11416.00
2018-05-23T11:44:58.546Z,11452.00
2018-05-23T11:45:58.548Z,11448.00
2018-05-23T11:46:58.518Z,11456.00
2018-05-23T11:47:58.519Z,11484.00
2018-05-23T11:48:58.507Z,11472.00
2018-05-23T11:49:58.475Z,11416.00
2018-05-23T11:50:58.503Z,11336.00
2018-05-23T11:51:58.465Z,11204.00
2018-05-23T11:52:58.479Z,11028.00
2018-05-23T11:53:58.426Z,10820.00
2018-05-23T11:54:58.431Z,10560.00
2018-05-23T11:55:58.513Z,10200.00
2018-05-23T11:56:58.387Z,9808.00
2018-05-23T11:57:58.372Z,9432.00
2018-05-23T11:58:58.363Z,9112.00
2018-05-23T11:59:58.342Z,8864.00
2018-05-23T12:00:58.355Z,8664.00
2018-05-23T12:01:58.392Z,8540.00
2018-05-23T12:02:58.322Z,8496.00
2018-05-23T12:03:58.297Z,8508.00
2018-05-23T12:04:58.302Z,8536.00
2018-05-23T12:05:58.264Z,8580.00
2018-05-23T12:06:58.266Z,8624.00
2018-05-23T12:07:58.242Z,8652.00
2018-05-23T12:08:58.232Z,8684.00
2018-05-23T12:09:58.225Z,8716.00
2018-05-23T12:10:58.208Z,8728.00
2018-05-23T12:11:58.206Z,8716.00
2018-05-23T12:12:58.171Z,8724.00
2018-05-23T12:13:58.154Z,8732.00
2018-05-23T12:14:58.145Z,8740.00
2018-05-23T12:15:58.141Z,8740.00
2018-05-23T12:16:58.128Z,8744.00
2018-05-23T12:17:58.109Z,8768.00
2018-05-23T12:18:58.100Z,8828.00
2018-05-23T12:19:58.089Z,8928.00
2018-05-23T12:20:58.068Z,9064.00